»·PEaware :: SKY74 KSBP-KOAR

SKY74 :: KSBP-KOAR

FLIGHT INFORMATION

Flight Status: Arrived
Operator:
Skymark Airlines
More flights by this operator :: More flights under this callsign
Pilot: Mounir D. (11581)
Aircraft: BEECH AIRCRAFT BONANZA
(BE36)
More flights by this aircraft type
Origin: KSBP San Luis Co Regl
United States
Destination: KOAR Marina
United States
More flights between these airports :: More routes between these airports
Route: CREPE3 PRB V248 SARDO ZURET
File this flight plan on PilotEdge
Remarks: SKY HIGH #4
Altitude:
(Current/Filed)
8,000ft
Speed:
(Current/Filed)
160kts
Departed: 06-Oct-18 12:16 PM
Arrived: 06-Oct-18 01:07 PM
Distance/Time
Traveled:
102nm/0:51
Distance/Time
To Go:
Arrived

Flight Plot

Page will automatically refresh every two minutes.

Flight plan parsing failed; only flown route is shown


Map Options




Map Legend


Flown Route
Filed Route
Departure Airport
Arrival Airport
Navaid (VOR, NDB)
Fix

Horizontal Profiles

Position Reports

Time Latitude Longitude Heading Altitude Ground
Speed
06-Oct-18 12:04 35.238375 -120.646141 0 215ft 0kts
06-Oct-18 12:05 35.238375 -120.646141 0 215ft 0kts
06-Oct-18 12:06 35.238376 -120.646141 0 215ft 0kts
06-Oct-18 12:07 35.238379 -120.646141 0 215ft 0kts
06-Oct-18 12:08 35.238382 -120.646141 0 215ft 0kts
06-Oct-18 12:09 35.238386 -120.646141 0 215ft 0kts
06-Oct-18 12:10 35.238389 -120.646141 0 215ft 0kts
06-Oct-18 12:11 35.238392 -120.646141 0 215ft 0kts
06-Oct-18 12:12 35.238395 -120.646141 0 215ft 0kts
06-Oct-18 12:13 35.238255 -120.644673 120 215ft 13kts
06-Oct-18 12:14 35.237408 -120.639207 123 215ft 19kts
06-Oct-18 12:15 35.234006 -120.633014 122 215ft 20kts
06-Oct-18 12:16 35.233329 -120.632571 217 215ft 0kts
06-Oct-18 12:17 35.233328 -120.632573 217 215ft 0kts
06-Oct-18 12:18 35.236475 -120.639450 301 245ft 95kts
06-Oct-18 12:19 35.252172 -120.668674 309 1832ft 104kts
06-Oct-18 12:20 35.266901 -120.693848 302 3536ft 83kts
06-Oct-18 12:21 35.277269 -120.719102 314 4902ft 103kts
06-Oct-18 12:22 35.299367 -120.755692 310 4983ft 151kts
06-Oct-18 12:23 35.325325 -120.799287 310 4982ft 159kts
06-Oct-18 12:24 35.349830 -120.840402 310 5526ft 136kts
06-Oct-18 12:25 35.378930 -120.853173 24 6445ft 126kts
06-Oct-18 12:26 35.409085 -120.829925 24 7186ft 128kts
06-Oct-18 12:27 35.439516 -120.806589 24 7861ft 129kts
06-Oct-18 12:28 35.473153 -120.780759 25 7978ft 152kts
06-Oct-18 12:29 35.509550 -120.752728 25 7989ft 155kts
06-Oct-18 12:30 35.546223 -120.724453 26 7988ft 156kts
06-Oct-18 12:31 35.584309 -120.695077 26 7985ft 161kts
06-Oct-18 12:32 35.621916 -120.666072 26 8001ft 160kts
06-Oct-18 12:33 35.661646 -120.635370 26 7986ft 167kts
06-Oct-18 12:34 35.703403 -120.639409 341 7988ft 154kts
06-Oct-18 12:35 35.743937 -120.655566 341 8007ft 153kts
06-Oct-18 12:36 35.784681 -120.671822 341 8002ft 153kts
06-Oct-18 12:37 35.825254 -120.688016 341 8014ft 154kts
06-Oct-18 12:38 35.867681 -120.704983 341 7995ft 158kts
06-Oct-18 12:39 35.908883 -120.721501 341 8001ft 154kts
06-Oct-18 12:40 35.949627 -120.737836 341 8002ft 153kts
06-Oct-18 12:41 35.990511 -120.754231 341 8015ft 154kts
06-Oct-18 12:42 36.033501 -120.771503 341 7997ft 161kts
06-Oct-18 12:43 36.075809 -120.788528 341 7995ft 158kts
06-Oct-18 12:44 36.109894 -120.821419 317 8005ft 158kts
06-Oct-18 12:45 36.143029 -120.859640 335 8011ft 158kts
06-Oct-18 12:46 36.172666 -120.897397 309 8034ft 164kts
06-Oct-18 12:47 36.201663 -120.941523 314 8007ft 161kts
06-Oct-18 12:48 36.231692 -120.984040 314 8008ft 162kts
06-Oct-18 12:49 36.262255 -121.025879 322 8010ft 160kts
06-Oct-18 12:50 36.297868 -121.059662 320 8007ft 159kts
06-Oct-18 12:51 36.329733 -121.098027 317 8041ft 159kts
06-Oct-18 12:52 36.360963 -121.137313 316 7920ft 159kts
06-Oct-18 12:53 36.391597 -121.176033 317 7641ft 154kts
06-Oct-18 12:54 36.424150 -121.217240 316 6966ft 174kts
06-Oct-18 12:55 36.458151 -121.260407 316 6550ft 175kts
06-Oct-18 12:56 36.492106 -121.303531 316 6054ft 170kts
06-Oct-18 12:57 36.521848 -121.345979 308 5664ft 162kts
06-Oct-18 12:58 36.545996 -121.389650 308 4692ft 136kts
06-Oct-18 12:59 36.566390 -121.426426 309 4330ft 130kts
06-Oct-18 13:00 36.587218 -121.464158 309 3823ft 127kts
06-Oct-18 13:01 36.608295 -121.502327 308 3795ft 137kts
06-Oct-18 13:02 36.630432 -121.542672 308 3415ft 142kts
06-Oct-18 13:03 36.652305 -121.582322 308 2899ft 129kts
06-Oct-18 13:04 36.665764 -121.623245 282 2758ft 138kts
06-Oct-18 13:05 36.670210 -121.667939 280 1981ft 115kts
06-Oct-18 13:06 36.673755 -121.704033 277 1123ft 92kts
06-Oct-18 13:07 36.671213 -121.732659 255 532ft 70kts
06-Oct-18 13:08 36.677220 -121.753315 300 203ft 68kts
06-Oct-18 13:09 36.681546 -121.762748 214 137ft 4kts
06-Oct-18 13:10 36.681284 -121.765013 11 137ft 5kts
06-Oct-18 13:11 36.681360 -121.764976 27 137ft 0kts

Navigation Log

Ident Type
Flight plan parsing failed, navigation log unavailable